Terminal Aerodrome Forecast
Issued by NWS Twin Cities, MN

Home | Current Version | Previous Version | Graphics & Text | Print | Product List | Glossary On
Versions: 1 2 3 4 5 6 7 8 9 10 11 12 13 14 15 16 17 18 19
000
FTUS43 KMPX 082337
TAFEAU
TAF
KEAU 082337Z 0900/0924 24007KT P6SM -SN OVC030
      TEMPO 0900/0904 2SM -SN OVC015
     FM090400 30008KT P6SM -SHSN OVC030
     FM091000 32009KT P6SM BKN035 OVC050
     FM091900 32009KT P6SM SCT070
     FM092300 28006KT P6SM SCT150=

USA.gov is the U.S. government's official web portal to all federal, state and local government web resources and services.